Terminal Aerodrome Forecast
Issued by NWS

Home | Current Version | Previous Version | Text Only | Print | Product List | Glossary On
Versions: 1 2 3 4 5 6 7 8 9 10 11 12 13 14 15 16 17 18 19
000
FTUS41 KBGM 051121
TAFITH
TAF
KITH 051121Z 0512/0612 28006KT P6SM BKN015
      TEMPO 0512/0514 BKN025
     FM051400 30010G18KT P6SM BKN040
     FM052300 32003KT P6SM SCT250=

USA.gov is the U.S. government's official web portal to all federal, state and local government web resources and services.